createdAt,value
2018-12-12T00:01:03.312Z,97.40
2018-12-12T00:02:38.228Z,97.60
2018-12-12T00:04:13.251Z,97.70
2018-12-12T00:05:48.199Z,97.70
2018-12-12T00:07:23.079Z,97.90
2018-12-12T00:08:58.035Z,97.70
2018-12-12T00:10:32.962Z,97.80
2018-12-12T00:12:07.904Z,97.60
2018-12-12T00:13:42.886Z,97.50
2018-12-12T00:15:19.157Z,97.50
2018-12-12T00:16:54.025Z,97.50
2018-12-12T00:18:28.970Z,97.70
2018-12-12T00:20:03.920Z,97.70
2018-12-12T00:21:38.862Z,97.50
2018-12-12T00:23:13.740Z,97.50
2018-12-12T00:24:48.691Z,97.50
2018-12-12T00:26:23.598Z,97.60
2018-12-12T00:27:58.474Z,97.60
2018-12-12T00:29:33.415Z,97.50
2018-12-12T00:31:08.304Z,97.60
2018-12-12T00:32:43.215Z,97.40
2018-12-12T00:34:18.164Z,97.40
2018-12-12T00:35:53.086Z,97.40
2018-12-12T00:37:27.974Z,97.60
2018-12-12T00:39:03.670Z,97.70
2018-12-12T00:40:38.602Z,97.80
2018-12-12T00:42:13.840Z,97.50
2018-12-12T00:43:48.733Z,97.60
2018-12-12T00:45:23.779Z,97.70
2018-12-12T00:46:58.726Z,97.70
2018-12-12T00:48:33.949Z,97.60
2018-12-12T00:50:09.118Z,97.60
2018-12-12T00:51:44.179Z,97.60
2018-12-12T00:53:19.078Z,97.70
2018-12-12T00:54:54.159Z,97.70
2018-12-12T00:56:29.066Z,97.80
2018-12-12T00:58:04.259Z,97.90
2018-12-12T00:59:39.174Z,97.80
2018-12-12T01:01:14.094Z,97.70
2018-12-12T01:02:48.997Z,97.70
2018-12-12T01:04:23.890Z,97.60
2018-12-12T01:05:58.777Z,97.50
2018-12-12T01:07:34.056Z,97.50
2018-12-12T01:09:09.447Z,97.50
2018-12-12T01:10:44.375Z,97.70
2018-12-12T01:12:19.307Z,97.80
2018-12-12T01:13:54.439Z,97.60
2018-12-12T01:15:29.326Z,97.70
2018-12-12T01:17:04.299Z,97.70
2018-12-12T01:18:39.203Z,97.70
2018-12-12T01:20:14.103Z,97.60
2018-12-12T01:21:49.107Z,97.80
2018-12-12T01:23:24.018Z,97.80
2018-12-12T01:24:59.056Z,97.70
2018-12-12T01:26:33.910Z,97.70
2018-12-12T01:28:08.843Z,97.80
2018-12-12T01:29:43.873Z,97.50
2018-12-12T01:31:18.746Z,97.70
2018-12-12T01:32:53.711Z,97.50
2018-12-12T01:34:28.738Z,97.50
2018-12-12T01:36:03.668Z,97.60
2018-12-12T01:37:38.603Z,97.60
2018-12-12T01:39:13.534Z,97.60
2018-12-12T01:40:48.479Z,97.50
2018-12-12T01:42:23.659Z,97.70
2018-12-12T01:43:58.577Z,97.70
2018-12-12T01:45:33.557Z,97.60
2018-12-12T01:47:08.532Z,97.60
2018-12-12T01:48:43.952Z,97.60
2018-12-12T01:50:18.885Z,97.80
2018-12-12T01:51:53.824Z,97.80
2018-12-12T01:53:28.753Z,97.80
2018-12-12T01:55:03.855Z,97.70
2018-12-12T01:56:45.451Z,97.80
2018-12-12T01:58:20.377Z,98.00
2018-12-12T01:59:55.258Z,97.90
2018-12-12T02:01:33.120Z,97.90
2018-12-12T02:03:08.095Z,97.90
2018-12-12T02:04:43.024Z,97.90
2018-12-12T02:06:17.923Z,98.00
2018-12-12T02:07:52.983Z,98.00
2018-12-12T02:09:27.927Z,98.00
2018-12-12T02:11:02.908Z,97.50
2018-12-12T02:12:37.811Z,97.60
2018-12-12T02:14:12.715Z,97.70
2018-12-12T02:15:47.771Z,97.80
2018-12-12T02:17:22.710Z,97.80
2018-12-12T02:18:57.830Z,98.10
2018-12-12T02:20:32.763Z,97.50
2018-12-12T02:22:07.750Z,97.80
2018-12-12T02:23:42.802Z,97.60
2018-12-12T02:25:18.637Z,97.50
2018-12-12T02:26:53.493Z,97.80
2018-12-12T02:28:28.400Z,97.70
2018-12-12T02:30:03.438Z,97.70
2018-12-12T02:31:38.349Z,97.80
2018-12-12T02:33:13.303Z,97.80
2018-12-12T02:34:48.398Z,97.90
2018-12-12T02:36:23.304Z,97.70
2018-12-12T02:37:58.270Z,97.80
2018-12-12T02:39:33.159Z,97.80
2018-12-12T02:41:08.117Z,97.90
2018-12-12T02:42:43.039Z,97.70
2018-12-12T02:44:17.966Z,97.80
2018-12-12T02:45:53.181Z,97.80
2018-12-12T02:47:28.116Z,97.80
2018-12-12T02:49:03.013Z,97.90
2018-12-12T02:50:37.933Z,97.90
2018-12-12T02:52:12.920Z,98.00
2018-12-12T02:53:47.831Z,98.00
2018-12-12T02:55:22.763Z,97.90
2018-12-12T02:56:57.711Z,97.90
2018-12-12T02:58:32.629Z,97.80
2018-12-12T03:00:09.325Z,97.80
2018-12-12T03:01:44.255Z,97.80
2018-12-12T03:03:19.258Z,98.00
2018-12-12T03:04:54.195Z,97.80
2018-12-12T03:06:29.092Z,97.80
2018-12-12T03:08:04.183Z,97.90
2018-12-12T03:09:39.416Z,97.80
2018-12-12T03:11:18.432Z,97.80
2018-12-12T03:12:53.443Z,97.70
2018-12-12T03:14:28.325Z,97.80
2018-12-12T03:16:03.291Z,98.00
2018-12-12T03:17:38.175Z,98.10
2018-12-12T03:19:13.135Z,98.00
2018-12-12T03:20:48.216Z,98.10
2018-12-12T03:22:23.146Z,98.00
2018-12-12T03:23:58.015Z,98.10
2018-12-12T03:25:32.903Z,97.70
2018-12-12T03:27:08.117Z,97.70
2018-12-12T03:28:43.079Z,97.90
2018-12-12T03:30:18.005Z,98.10
2018-12-12T03:31:53.013Z,97.80
2018-12-12T03:33:28.001Z,97.90
2018-12-12T03:35:02.980Z,97.90
2018-12-12T03:36:37.939Z,97.90
2018-12-12T03:38:12.905Z,97.90
2018-12-12T03:39:47.794Z,98.00
2018-12-12T03:41:23.052Z,98.20
2018-12-12T03:42:58.167Z,98.20
2018-12-12T03:44:33.675Z,98.50
2018-12-12T03:46:08.696Z,98.60
2018-12-12T03:47:43.699Z,98.60
2018-12-12T03:49:18.626Z,98.60
2018-12-12T03:50:53.542Z,99.00
2018-12-12T03:52:28.510Z,98.90
2018-12-12T03:54:03.546Z,98.90
2018-12-12T03:55:38.468Z,99.10
2018-12-12T03:57:13.374Z,99.20
2018-12-12T03:58:48.274Z,98.90
2018-12-12T04:00:23.162Z,99.00
2018-12-12T04:01:58.266Z,99.00
2018-12-12T04:03:33.243Z,99.00
2018-12-12T04:05:08.389Z,98.90
2018-12-12T04:06:43.282Z,98.70
2018-12-12T04:08:18.206Z,98.80
2018-12-12T04:09:53.154Z,98.60
2018-12-12T04:11:28.084Z,98.70
2018-12-12T04:13:02.938Z,98.80
2018-12-12T04:14:37.886Z,98.90
2018-12-12T04:16:13.172Z,99.00
2018-12-12T04:17:48.119Z,99.10
2018-12-12T04:19:23.218Z,98.90
2018-12-12T04:20:58.123Z,98.80
2018-12-12T04:22:34.653Z,98.90
2018-12-12T04:24:09.614Z,98.90
2018-12-12T04:25:44.522Z,98.90
2018-12-12T04:27:19.448Z,98.80
2018-12-12T04:28:54.408Z,99.00
2018-12-12T04:30:29.300Z,99.00
2018-12-12T04:32:04.283Z,99.00
2018-12-12T04:33:39.876Z,99.10
2018-12-12T04:35:14.921Z,99.10
2018-12-12T04:36:49.842Z,99.00
2018-12-12T04:38:24.744Z,98.90
2018-12-12T04:39:59.638Z,98.80
2018-12-12T04:41:35.550Z,98.80
2018-12-12T04:43:10.443Z,98.80
2018-12-12T04:44:45.303Z,98.60
2018-12-12T04:46:20.226Z,98.80
2018-12-12T04:47:55.556Z,98.70
2018-12-12T04:49:30.440Z,98.60
2018-12-12T04:51:05.364Z,98.50
2018-12-12T04:52:40.304Z,98.40
2018-12-12T04:54:15.314Z,98.50
2018-12-12T04:55:50.194Z,98.70
2018-12-12T04:57:25.625Z,98.60
2018-12-12T04:59:00.828Z,98.80
2018-12-12T05:00:35.768Z,98.50
2018-12-12T05:02:10.799Z,98.60
2018-12-12T05:03:45.813Z,98.60
2018-12-12T05:05:20.704Z,98.60
2018-12-12T05:06:55.621Z,98.50
2018-12-12T05:08:30.538Z,98.60
2018-12-12T05:10:06.002Z,98.70
2018-12-12T05:11:41.391Z,98.60
2018-12-12T05:13:16.330Z,98.70
2018-12-12T05:14:51.266Z,98.50
2018-12-12T05:16:26.244Z,98.60
2018-12-12T05:18:02.661Z,98.50
2018-12-12T05:19:37.767Z,98.50
2018-12-12T05:21:12.718Z,98.80
2018-12-12T05:22:47.630Z,98.60
2018-12-12T05:24:22.751Z,98.10
2018-12-12T05:25:58.640Z,98.20
2018-12-12T05:27:33.655Z,98.40
2018-12-12T05:29:08.570Z,98.50
2018-12-12T05:30:43.454Z,98.60
2018-12-12T05:32:18.530Z,98.60
2018-12-12T05:33:53.643Z,98.60
2018-12-12T05:35:28.563Z,98.60
2018-12-12T05:37:03.597Z,98.70
2018-12-12T05:38:38.782Z,98.60
2018-12-12T05:40:13.846Z,98.70
2018-12-12T05:41:48.744Z,98.60
2018-12-12T05:43:24.319Z,98.60
2018-12-12T05:44:59.319Z,98.80
2018-12-12T05:46:41.640Z,98.80
2018-12-12T05:48:12.681Z,98.90
2018-12-12T05:49:47.964Z,99.00
2018-12-12T05:51:22.894Z,98.90
2018-12-12T05:53:02.378Z,98.90
2018-12-12T05:54:37.262Z,98.70
2018-12-12T05:56:14.316Z,98.70
2018-12-12T05:57:49.190Z,98.70
2018-12-12T05:59:24.685Z,98.70
2018-12-12T06:00:59.747Z,98.80
2018-12-12T06:02:34.676Z,98.60
2018-12-12T06:04:09.584Z,98.70
2018-12-12T06:05:44.936Z,98.60
2018-12-12T06:07:19.875Z,98.80
2018-12-12T06:08:54.775Z,98.80
2018-12-12T06:10:29.650Z,98.70
2018-12-12T06:12:04.872Z,98.70
2018-12-12T06:13:39.767Z,98.80
2018-12-12T06:15:14.758Z,98.50
2018-12-12T06:16:49.726Z,98.60
2018-12-12T06:18:24.683Z,98.60
2018-12-12T06:19:59.900Z,98.60
2018-12-12T06:21:34.834Z,98.60
2018-12-12T06:23:09.748Z,98.40
2018-12-12T06:24:44.895Z,98.50
2018-12-12T06:26:19.794Z,98.60
2018-12-12T06:27:54.721Z,98.50
2018-12-12T06:29:29.590Z,98.50
2018-12-12T06:31:04.863Z,98.50
2018-12-12T06:32:39.756Z,98.50
2018-12-12T06:34:14.647Z,98.50
2018-12-12T06:35:49.577Z,98.50
2018-12-12T06:37:24.519Z,98.40
2018-12-12T06:38:59.474Z,98.40
2018-12-12T06:40:34.378Z,98.50
2018-12-12T06:42:15.802Z,98.70
2018-12-12T06:43:51.063Z,98.70
2018-12-12T06:45:25.995Z,98.60
2018-12-12T06:47:00.899Z,98.90
2018-12-12T06:48:35.824Z,98.90
2018-12-12T06:50:10.816Z,99.00
2018-12-12T06:51:45.736Z,98.90
2018-12-12T06:53:20.658Z,98.90
2018-12-12T06:54:55.576Z,99.10
2018-12-12T06:56:33.314Z,99.20
2018-12-12T06:58:08.278Z,99.20
2018-12-12T06:59:43.189Z,99.20
2018-12-12T07:01:18.154Z,98.90
2018-12-12T07:02:53.070Z,98.90
2018-12-12T07:04:28.111Z,98.80
2018-12-12T07:06:02.998Z,98.80
2018-12-12T07:07:38.130Z,98.80
2018-12-12T07:09:13.047Z,98.80
2018-12-12T07:10:47.959Z,98.90
2018-12-12T07:12:29.484Z,98.90
2018-12-12T07:14:04.705Z,99.00
2018-12-12T07:15:39.798Z,99.00
2018-12-12T07:17:14.722Z,99.10
2018-12-12T07:18:49.612Z,99.00
2018-12-12T07:20:24.562Z,99.10
2018-12-12T07:21:59.518Z,99.10
2018-12-12T07:23:34.445Z,99.10
2018-12-12T07:25:09.608Z,99.00
2018-12-12T07:26:44.515Z,99.00
2018-12-12T07:28:19.480Z,99.10
2018-12-12T07:29:54.402Z,99.00
2018-12-12T07:31:29.352Z,99.10
2018-12-12T07:33:04.286Z,99.10
2018-12-12T07:34:39.207Z,98.90
2018-12-12T07:36:14.175Z,98.60
2018-12-12T07:37:49.254Z,98.50
2018-12-12T07:39:24.158Z,98.60
2018-12-12T07:40:59.064Z,98.80
2018-12-12T07:42:34.010Z,99.10
2018-12-12T07:44:08.944Z,98.40
2018-12-12T07:45:43.832Z,98.40
2018-12-12T07:47:18.807Z,98.40
2018-12-12T07:48:54.092Z,98.30
2018-12-12T07:50:29.016Z,98.30
2018-12-12T07:52:04.011Z,98.30
2018-12-12T07:53:41.802Z,98.30
2018-12-12T07:55:16.770Z,98.30
2018-12-12T07:56:51.685Z,98.20
2018-12-12T07:58:26.966Z,98.20
2018-12-12T08:00:01.890Z,98.10
2018-12-12T08:01:36.935Z,98.20
2018-12-12T08:03:11.945Z,98.00
2018-12-12T08:04:46.915Z,98.10
2018-12-12T08:06:22.032Z,98.70
2018-12-12T08:07:57.243Z,98.40
2018-12-12T08:09:35.865Z,98.30
2018-12-12T08:11:10.870Z,98.30
2018-12-12T08:12:45.779Z,98.10
2018-12-12T08:14:21.030Z,98.10
2018-12-12T08:15:55.952Z,98.00
2018-12-12T08:17:30.847Z,98.00
2018-12-12T08:19:05.762Z,98.00
2018-12-12T08:20:41.048Z,97.50
2018-12-12T08:22:15.987Z,97.70
2018-12-12T08:23:50.879Z,97.80
2018-12-12T08:25:26.138Z,97.80
2018-12-12T08:27:01.175Z,97.70
2018-12-12T08:28:36.105Z,97.80
2018-12-12T08:30:11.163Z,97.80
2018-12-12T08:31:46.087Z,97.50
2018-12-12T08:33:21.041Z,97.50
2018-12-12T08:34:55.970Z,97.40
2018-12-12T08:36:30.870Z,97.10
2018-12-12T08:38:05.829Z,97.30
2018-12-12T08:39:40.806Z,97.40
2018-12-12T08:41:15.700Z,97.40
2018-12-12T08:42:50.698Z,97.40
2018-12-12T08:44:25.612Z,97.40
2018-12-12T08:46:00.489Z,97.20
2018-12-12T08:47:35.411Z,97.50
2018-12-12T08:49:10.428Z,97.50
2018-12-12T08:50:45.641Z,97.20
2018-12-12T08:52:20.571Z,97.10
2018-12-12T08:53:55.706Z,97.10
2018-12-12T08:55:30.867Z,97.10
2018-12-12T08:57:05.801Z,97.20
2018-12-12T08:58:40.723Z,97.20
2018-12-12T09:00:15.872Z,97.20
2018-12-12T09:01:50.795Z,97.40
2018-12-12T09:03:25.823Z,97.40
2018-12-12T09:05:00.706Z,97.30
2018-12-12T09:06:35.700Z,97.10
2018-12-12T09:08:10.638Z,96.70
2018-12-12T09:09:45.823Z,96.60
2018-12-12T09:11:20.708Z,96.90
2018-12-12T09:12:55.646Z,97.20
2018-12-12T09:14:30.577Z,97.40
2018-12-12T09:16:05.559Z,97.70
2018-12-12T09:17:40.487Z,97.50
2018-12-12T09:19:15.367Z,97.70
2018-12-12T09:20:50.295Z,97.10
2018-12-12T09:22:25.414Z,97.10
2018-12-12T09:24:00.362Z,97.10
2018-12-12T09:25:35.339Z,97.00
2018-12-12T09:27:10.302Z,97.10
2018-12-12T09:28:45.183Z,97.20
2018-12-12T09:30:20.151Z,97.30
2018-12-12T09:31:55.091Z,97.20
2018-12-12T09:33:30.113Z,97.20
2018-12-12T09:35:05.252Z,97.10
2018-12-12T09:36:40.247Z,96.80
2018-12-12T09:38:15.192Z,96.70
2018-12-12T09:39:50.090Z,96.20
2018-12-12T09:41:24.992Z,96.30
2018-12-12T09:43:00.007Z,96.60
2018-12-12T09:44:35.100Z,96.70
2018-12-12T09:46:10.071Z,96.70
2018-12-12T09:47:45.134Z,96.90
2018-12-12T09:49:20.010Z,96.70
2018-12-12T09:50:55.939Z,96.10
2018-12-12T09:52:30.907Z,96.40
2018-12-12T09:54:05.876Z,96.40
2018-12-12T09:55:40.883Z,96.10
2018-12-12T09:57:17.802Z,96.40
2018-12-12T09:58:52.786Z,96.00
2018-12-12T10:00:27.700Z,96.00
2018-12-12T10:02:02.682Z,95.80
2018-12-12T10:03:37.621Z,96.20
2018-12-12T10:05:12.533Z,96.10
2018-12-12T10:06:47.439Z,96.10
2018-12-12T10:08:22.408Z,95.90
2018-12-12T10:09:57.350Z,96.40
2018-12-12T10:11:32.285Z,96.40
2018-12-12T10:13:07.234Z,96.10
2018-12-12T10:14:42.228Z,96.30
2018-12-12T10:16:17.119Z,96.10
2018-12-12T10:17:52.143Z,96.20
2018-12-12T10:19:27.065Z,96.20
2018-12-12T10:21:02.067Z,96.10
2018-12-12T10:22:37.127Z,96.10
2018-12-12T10:24:12.693Z,95.90
2018-12-12T10:25:47.665Z,96.30
2018-12-12T10:27:22.663Z,95.80
2018-12-12T10:31:09.674Z,95.90
2018-12-12T10:32:46.147Z,95.60
2018-12-12T10:34:28.572Z,95.80
2018-12-12T10:36:04.754Z,95.40
2018-12-12T10:37:39.696Z,95.20
2018-12-12T10:39:14.645Z,94.90
2018-12-12T10:40:49.592Z,95.10
2018-12-12T10:42:24.591Z,95.40
2018-12-12T10:43:59.518Z,95.30
2018-12-12T10:45:34.439Z,94.80
2018-12-12T10:47:09.495Z,95.20
2018-12-12T10:48:51.098Z,95.30
2018-12-12T10:50:26.035Z,95.80
2018-12-12T10:52:00.932Z,95.60
2018-12-12T10:53:36.003Z,95.50
2018-12-12T10:55:10.936Z,95.80
2018-12-12T10:56:45.871Z,95.80
2018-12-12T10:58:20.785Z,95.70
2018-12-12T10:59:55.777Z,95.60
2018-12-12T11:01:35.223Z,95.70
2018-12-12T11:03:15.295Z,95.70
2018-12-12T11:04:50.232Z,95.50
2018-12-12T11:06:25.425Z,95.40
2018-12-12T11:08:00.507Z,95.60
2018-12-12T11:09:35.423Z,95.80
2018-12-12T11:11:10.334Z,95.70
2018-12-12T11:12:45.276Z,95.10
2018-12-12T11:14:20.135Z,95.20
2018-12-12T11:15:55.024Z,95.20
2018-12-12T11:17:29.997Z,95.30
2018-12-12T11:19:04.927Z,95.30
2018-12-12T11:20:39.939Z,95.50
2018-12-12T11:22:15.659Z,95.40
2018-12-12T11:23:50.762Z,95.00
2018-12-12T11:25:25.708Z,94.80
2018-12-12T11:27:00.803Z,94.70
2018-12-12T11:28:35.707Z,94.60
2018-12-12T11:30:10.721Z,95.00
2018-12-12T11:31:45.654Z,94.60
2018-12-12T11:33:20.587Z,94.40
2018-12-12T11:34:55.503Z,93.90
2018-12-12T11:36:30.460Z,93.50
2018-12-12T11:38:05.440Z,93.40
2018-12-12T11:39:40.416Z,93.60
2018-12-12T11:41:15.355Z,93.50
2018-12-12T11:42:50.348Z,93.10
2018-12-12T11:44:25.294Z,93.20
2018-12-12T11:46:00.305Z,93.40
2018-12-12T11:47:35.378Z,93.50
2018-12-12T11:49:10.275Z,93.60
2018-12-12T11:50:45.279Z,93.40
2018-12-12T11:52:20.184Z,93.70
2018-12-12T11:53:55.210Z,93.20
2018-12-12T11:55:30.125Z,93.10
2018-12-12T11:57:05.458Z,93.10
2018-12-12T11:58:40.382Z,93.10
2018-12-12T12:00:15.369Z,93.30
2018-12-12T12:01:50.296Z,93.60
2018-12-12T12:03:25.395Z,93.70
2018-12-12T12:05:00.372Z,92.70
2018-12-12T12:06:35.259Z,92.50
2018-12-12T12:08:10.311Z,92.70
2018-12-12T12:09:45.263Z,92.30
2018-12-12T12:11:20.215Z,92.60
2018-12-12T12:12:55.252Z,92.50
2018-12-12T12:14:30.160Z,92.90
2018-12-12T12:16:05.095Z,92.20
2018-12-12T12:17:39.996Z,92.50
2018-12-12T12:19:14.923Z,92.10
2018-12-12T12:20:49.809Z,91.90
2018-12-12T12:22:24.715Z,91.90
2018-12-12T12:23:59.665Z,91.90
2018-12-12T12:25:34.593Z,92.00
2018-12-12T12:27:09.602Z,92.10
2018-12-12T12:28:44.554Z,91.80
2018-12-12T12:30:19.435Z,91.90
2018-12-12T12:31:54.363Z,92.40
2018-12-12T12:33:29.407Z,92.40
2018-12-12T12:35:04.490Z,92.20
2018-12-12T12:36:39.394Z,92.20
2018-12-12T12:38:17.240Z,92.30
2018-12-12T12:39:52.181Z,92.60
2018-12-12T12:41:27.075Z,92.80
2018-12-12T12:43:02.027Z,92.40
2018-12-12T12:44:37.324Z,92.60
2018-12-12T12:46:12.250Z,92.30
2018-12-12T12:47:47.126Z,92.20
2018-12-12T12:49:22.175Z,92.00
2018-12-12T12:50:57.134Z,91.80
2018-12-12T12:52:32.042Z,91.60
2018-12-12T12:54:06.947Z,92.10
2018-12-12T12:55:41.914Z,92.40
2018-12-12T12:57:16.851Z,92.70
2018-12-12T12:58:51.778Z,92.50
2018-12-12T13:00:26.659Z,92.60
2018-12-12T13:02:01.563Z,92.60
2018-12-12T13:03:36.517Z,92.90
2018-12-12T13:05:11.431Z,92.90
2018-12-12T13:06:46.328Z,92.60
2018-12-12T13:08:21.246Z,92.60
2018-12-12T13:09:56.269Z,93.00
2018-12-12T13:11:31.183Z,92.50
2018-12-12T13:13:06.443Z,92.60
2018-12-12T13:14:41.575Z,92.50
2018-12-12T13:16:17.300Z,92.60
2018-12-12T13:17:52.205Z,92.40
2018-12-12T13:19:27.295Z,92.30
2018-12-12T13:21:02.222Z,92.70
2018-12-12T13:22:37.483Z,92.70
2018-12-12T13:24:12.403Z,92.50
2018-12-12T13:25:47.335Z,92.60
2018-12-12T13:27:22.218Z,92.50
2018-12-12T13:28:57.200Z,92.80
2018-12-12T13:30:32.171Z,92.60
2018-12-12T13:32:07.082Z,92.50
2018-12-12T13:33:42.047Z,92.90
2018-12-12T13:35:17.033Z,92.60
2018-12-12T13:36:51.981Z,92.20
2018-12-12T13:38:26.971Z,92.40
2018-12-12T13:40:01.922Z,92.60
2018-12-12T13:41:36.967Z,92.70
2018-12-12T13:43:11.944Z,92.60
2018-12-12T13:44:47.004Z,93.00
2018-12-12T13:46:22.011Z,93.10
2018-12-12T13:47:56.963Z,92.60
2018-12-12T13:49:31.976Z,92.10
2018-12-12T13:51:06.935Z,92.10
2018-12-12T13:52:41.860Z,92.30
2018-12-12T13:54:16.800Z,92.40
2018-12-12T13:55:54.794Z,92.50
2018-12-12T13:57:29.723Z,92.70
2018-12-12T13:59:04.641Z,92.70
2018-12-12T14:00:39.723Z,92.70
2018-12-12T14:02:14.766Z,92.70
2018-12-12T14:03:52.574Z,92.70
2018-12-12T14:05:27.538Z,92.50
2018-12-12T14:07:02.523Z,92.40
2018-12-12T14:08:37.898Z,92.60
2018-12-12T14:10:12.866Z,93.00
2018-12-12T14:11:47.798Z,93.20
2018-12-12T14:13:22.759Z,93.10
2018-12-12T14:14:57.898Z,92.90
2018-12-12T14:16:32.924Z,92.90
2018-12-12T14:18:07.894Z,93.20
2018-12-12T14:19:42.991Z,92.60
2018-12-12T14:21:17.954Z,92.60
2018-12-12T14:22:52.922Z,92.80
2018-12-12T14:24:27.918Z,93.10
2018-12-12T14:26:02.871Z,93.10
2018-12-12T14:27:39.005Z,93.10
2018-12-12T14:29:14.494Z,93.30
2018-12-12T14:30:49.402Z,93.30
2018-12-12T14:32:24.395Z,93.10
2018-12-12T14:33:59.348Z,93.10
2018-12-12T14:35:34.393Z,93.10
2018-12-12T14:37:09.323Z,92.70
2018-12-12T14:38:44.298Z,92.80
2018-12-12T14:40:19.297Z,92.80
2018-12-12T14:41:54.243Z,92.80
2018-12-12T14:43:29.145Z,93.00
2018-12-12T14:45:04.399Z,92.90
2018-12-12T14:46:39.346Z,93.10
2018-12-12T14:48:14.292Z,93.00
2018-12-12T14:49:49.248Z,93.10
2018-12-12T14:51:24.269Z,93.20
2018-12-12T14:52:59.182Z,93.40
2018-12-12T14:54:34.102Z,93.30
2018-12-12T14:56:09.035Z,93.50
2018-12-12T14:57:44.052Z,93.80
2018-12-12T14:59:18.977Z,94.00
2018-12-12T15:00:54.793Z,94.30
2018-12-12T15:02:29.831Z,94.70
2018-12-12T15:04:05.105Z,94.00
2018-12-12T15:05:41.023Z,93.60
2018-12-12T15:07:15.914Z,93.70
2018-12-12T15:08:50.824Z,93.80
2018-12-12T15:10:25.811Z,93.80
2018-12-12T15:12:00.836Z,93.70
2018-12-12T15:13:35.701Z,93.40
2018-12-12T15:15:10.632Z,93.50
2018-12-12T15:16:45.610Z,93.50
2018-12-12T15:18:20.565Z,93.50
2018-12-12T15:19:55.489Z,93.70
2018-12-12T15:21:30.542Z,93.70
2018-12-12T15:23:05.483Z,93.60
2018-12-12T15:24:40.394Z,94.30
2018-12-12T15:26:15.314Z,94.00
2018-12-12T15:27:50.309Z,93.90
2018-12-12T15:29:25.234Z,94.00
2018-12-12T15:31:00.155Z,93.80
2018-12-12T15:32:35.176Z,93.60
2018-12-12T15:34:10.068Z,94.00
2018-12-12T15:35:44.975Z,93.30
2018-12-12T15:37:20.278Z,93.40
2018-12-12T15:38:55.181Z,93.60
2018-12-12T15:40:30.100Z,93.70
2018-12-12T15:42:05.027Z,93.70
2018-12-12T15:43:40.013Z,93.90
2018-12-12T15:45:14.994Z,93.90
2018-12-12T15:46:49.951Z,94.00
2018-12-12T15:48:24.867Z,94.30
2018-12-12T15:50:00.198Z,94.00
2018-12-12T15:51:35.133Z,94.20
2018-12-12T15:53:10.027Z,93.80
2018-12-12T15:54:44.935Z,94.10
2018-12-12T15:56:19.896Z,94.00
2018-12-12T15:57:54.810Z,94.00
2018-12-12T15:59:29.765Z,94.00
2018-12-12T16:01:04.679Z,94.20
2018-12-12T16:02:39.914Z,94.20
2018-12-12T16:04:14.928Z,94.20
2018-12-12T16:05:49.818Z,94.20
2018-12-12T16:07:24.722Z,94.10
2018-12-12T16:08:59.724Z,94.00
2018-12-12T16:10:34.703Z,94.20
2018-12-12T16:12:09.671Z,94.30
2018-12-12T16:13:44.594Z,94.50
2018-12-12T16:15:19.589Z,94.40
2018-12-12T16:16:54.608Z,94.40
2018-12-12T16:18:29.537Z,94.40
2018-12-12T16:20:05.776Z,94.40
2018-12-12T16:21:40.711Z,94.50
2018-12-12T16:23:16.002Z,94.60
2018-12-12T16:24:50.919Z,94.70
2018-12-12T16:26:25.880Z,94.70
2018-12-12T16:28:00.783Z,94.80
2018-12-12T16:29:36.109Z,94.90
2018-12-12T16:31:11.096Z,95.00
2018-12-12T16:32:46.081Z,95.50
2018-12-12T16:34:21.027Z,95.20
2018-12-12T16:35:56.175Z,95.30
2018-12-12T16:37:31.099Z,95.30
2018-12-12T16:39:09.274Z,95.40
2018-12-12T16:40:44.199Z,95.50
2018-12-12T16:42:19.186Z,95.60
2018-12-12T16:43:54.898Z,95.70
2018-12-12T16:45:29.820Z,95.00
2018-12-12T16:47:04.864Z,94.90
2018-12-12T16:48:39.790Z,94.70
2018-12-12T16:50:14.805Z,94.60
2018-12-12T16:51:49.732Z,94.40
2018-12-12T16:53:24.666Z,94.30
2018-12-12T16:54:59.708Z,94.30
2018-12-12T16:56:34.719Z,94.60
2018-12-12T16:58:10.479Z,94.70
2018-12-12T16:59:45.431Z,94.90
2018-12-12T17:01:23.272Z,94.90
2018-12-12T17:02:58.223Z,94.70
2018-12-12T17:04:33.247Z,95.10
2018-12-12T17:06:08.213Z,95.20
2018-12-12T17:07:43.235Z,95.30
2018-12-12T17:09:18.129Z,95.70
2018-12-12T17:10:53.053Z,95.90
2018-12-12T17:12:28.108Z,96.10
2018-12-12T17:14:03.131Z,96.20
2018-12-12T17:15:38.240Z,96.20
2018-12-12T17:17:19.906Z,96.20
2018-12-12T17:18:54.889Z,96.50
2018-12-12T17:20:29.831Z,96.80
2018-12-12T17:22:04.800Z,96.90
2018-12-12T17:23:39.764Z,96.60
2018-12-12T17:25:14.725Z,96.50
2018-12-12T17:26:49.687Z,96.50
2018-12-12T17:28:24.614Z,96.70
2018-12-12T17:29:59.535Z,96.70
2018-12-12T17:31:34.544Z,96.80
2018-12-12T17:33:09.446Z,96.70
2018-12-12T17:34:44.372Z,96.90
2018-12-12T17:36:19.279Z,96.70
2018-12-12T17:37:54.588Z,96.60
2018-12-12T17:39:30.395Z,96.60
2018-12-12T17:41:05.304Z,96.60
2018-12-12T17:42:40.203Z,96.60
2018-12-12T17:44:18.003Z,96.90
2018-12-12T17:45:52.964Z,97.10
2018-12-12T17:47:27.871Z,97.00
2018-12-12T17:49:02.775Z,96.90
2018-12-12T17:50:37.755Z,97.40
2018-12-12T17:52:12.655Z,97.20
2018-12-12T17:53:47.573Z,97.20
2018-12-12T17:55:22.557Z,97.30
2018-12-12T17:56:57.587Z,97.80
2018-12-12T17:58:32.499Z,97.60
2018-12-12T18:00:08.744Z,97.40
2018-12-12T18:01:43.707Z,97.30
2018-12-12T18:03:18.657Z,97.30
2018-12-12T18:04:54.259Z,97.20
2018-12-12T18:06:29.171Z,97.10
2018-12-12T18:08:04.132Z,97.00
2018-12-12T18:09:39.116Z,97.20
2018-12-12T18:11:14.043Z,97.20
2018-12-12T18:12:49.063Z,97.30
2018-12-12T18:14:23.995Z,97.40
2018-12-12T18:15:58.933Z,97.20
2018-12-12T18:17:33.952Z,97.30
2018-12-12T18:19:08.999Z,97.10
2018-12-12T18:20:43.933Z,97.10
2018-12-12T18:22:18.842Z,97.20
2018-12-12T18:23:54.187Z,97.60
2018-12-12T18:25:29.119Z,97.20
2018-12-12T18:27:04.100Z,97.00
2018-12-12T18:28:38.983Z,97.00
2018-12-12T18:30:14.288Z,97.00
2018-12-12T18:31:49.192Z,97.00
2018-12-12T18:33:24.144Z,97.20
2018-12-12T18:34:59.111Z,97.30
2018-12-12T18:36:34.326Z,97.60
2018-12-12T18:38:09.295Z,97.90
2018-12-12T18:39:44.202Z,97.80
2018-12-12T18:41:19.126Z,97.70
2018-12-12T18:42:54.077Z,97.80
2018-12-12T18:44:29.032Z,97.80
2018-12-12T18:46:03.968Z,97.80
2018-12-12T18:47:38.906Z,97.80
2018-12-12T18:49:13.981Z,97.80
2018-12-12T18:50:49.136Z,98.10
2018-12-12T18:52:24.109Z,98.10
2018-12-12T18:53:59.073Z,98.10
2018-12-12T18:55:34.300Z,98.10
2018-12-12T18:57:09.209Z,98.30
2018-12-12T18:58:44.182Z,98.40
2018-12-12T19:00:19.134Z,98.30
2018-12-12T19:01:54.127Z,98.30
2018-12-12T19:03:29.089Z,98.40
2018-12-12T19:05:04.024Z,98.40
2018-12-12T19:06:39.030Z,98.80
2018-12-12T19:08:14.022Z,98.40
2018-12-12T19:09:48.963Z,98.00
2018-12-12T19:11:23.935Z,98.00
2018-12-12T19:12:58.889Z,98.00
2018-12-12T19:14:33.838Z,98.00
2018-12-12T19:16:08.782Z,98.00
2018-12-12T19:17:43.803Z,98.00
2018-12-12T19:19:18.735Z,98.10
2018-12-12T19:20:59.824Z,98.00
2018-12-12T19:22:30.802Z,98.00
2018-12-12T19:24:05.868Z,98.00
2018-12-12T19:25:40.991Z,98.10
2018-12-12T19:27:15.993Z,98.10
2018-12-12T19:28:50.958Z,98.10
2018-12-12T19:30:25.983Z,98.10
2018-12-12T19:32:00.926Z,98.10
2018-12-12T19:33:35.827Z,97.90
2018-12-12T19:35:11.550Z,98.00
2018-12-12T19:36:46.456Z,97.90
2018-12-12T19:38:21.456Z,98.00
2018-12-12T19:39:56.386Z,97.80
2018-12-12T19:41:31.566Z,97.80
2018-12-12T19:43:07.440Z,97.80
2018-12-12T19:44:42.359Z,97.90
2018-12-12T19:46:17.327Z,98.10
2018-12-12T19:47:52.475Z,98.10
2018-12-12T19:49:27.476Z,98.00
2018-12-12T19:51:02.586Z,98.10
2018-12-12T19:52:37.615Z,98.10
2018-12-12T19:54:12.936Z,98.10
2018-12-12T19:55:48.127Z,98.10
2018-12-12T19:57:23.112Z,98.10
2018-12-12T19:58:57.978Z,98.20
2018-12-12T20:00:32.956Z,98.20
2018-12-12T20:02:08.385Z,98.20
2018-12-12T20:03:43.278Z,98.20
2018-12-12T20:05:18.226Z,98.20
2018-12-12T20:06:53.094Z,98.10
2018-12-12T20:08:28.111Z,98.10
2018-12-12T20:10:03.068Z,98.10
2018-12-12T20:11:38.602Z,98.10
2018-12-12T20:13:13.749Z,98.00
2018-12-12T20:14:49.179Z,97.90
2018-12-12T20:16:24.165Z,97.80
2018-12-12T20:17:59.139Z,97.70
2018-12-12T20:19:34.051Z,97.70
2018-12-12T20:21:09.021Z,97.60
2018-12-12T20:22:43.945Z,97.40
2018-12-12T20:24:18.936Z,97.30
2018-12-12T20:25:53.879Z,97.00
2018-12-12T20:27:28.799Z,96.20